createdAt,value
2019-05-25T00:01:48.429Z,61.92
2019-05-25T00:04:18.175Z,62.18
2019-05-25T00:06:47.817Z,62.41
2019-05-25T00:09:17.560Z,62.57
2019-05-25T00:11:47.210Z,63.04
2019-05-25T00:14:16.961Z,63.30
2019-05-25T00:16:46.667Z,63.67
2019-05-25T00:19:16.293Z,64.02
2019-05-25T00:21:45.998Z,64.62
2019-05-25T00:24:15.693Z,64.63
2019-05-25T00:26:45.349Z,64.71
2019-05-25T00:29:14.993Z,64.82
2019-05-25T00:31:44.707Z,65.32
2019-05-25T00:34:14.419Z,65.65
2019-05-25T00:36:44.480Z,65.66
2019-05-25T00:39:14.166Z,65.50
2019-05-25T00:41:43.797Z,66.22
2019-05-25T00:44:13.523Z,66.22
2019-05-25T00:46:43.149Z,65.95
2019-05-25T00:49:12.936Z,66.17
2019-05-25T00:51:42.666Z,66.06
2019-05-25T00:54:27.102Z,66.40
2019-05-25T00:56:43.830Z,66.02
2019-05-25T00:59:13.502Z,66.26
2019-05-25T01:01:43.205Z,66.73
2019-05-25T01:04:12.837Z,67.05
2019-05-25T01:06:42.508Z,67.65
2019-05-25T01:09:12.201Z,68.02
2019-05-25T01:11:41.862Z,68.63
2019-05-25T01:14:11.559Z,68.92
2019-05-25T01:16:41.269Z,69.19
2019-05-25T01:19:10.982Z,69.28
2019-05-25T01:21:40.652Z,69.42
2019-05-25T01:24:10.377Z,69.42
2019-05-25T01:26:40.074Z,69.52
2019-05-25T01:29:09.768Z,69.88
2019-05-25T01:31:39.464Z,70.01
2019-05-25T01:34:09.196Z,70.40
2019-05-25T01:36:38.983Z,70.58
2019-05-25T01:39:08.935Z,70.67
2019-05-25T01:41:38.694Z,71.12
2019-05-25T01:44:08.361Z,71.38
2019-05-25T01:46:38.063Z,71.78
2019-05-25T01:49:07.901Z,71.76
2019-05-25T01:51:37.560Z,71.96
2019-05-25T01:54:07.347Z,72.11
2019-05-25T01:56:37.038Z,71.59
2019-05-25T01:59:06.848Z,72.04
2019-05-25T02:01:36.552Z,72.48
2019-05-25T02:04:06.408Z,72.62
2019-05-25T02:06:36.083Z,73.12
2019-05-25T02:09:08.572Z,73.32
2019-05-25T02:11:38.340Z,73.25
2019-05-25T02:14:08.049Z,73.29
2019-05-25T02:16:38.638Z,73.04
2019-05-25T02:19:08.276Z,73.58
2019-05-25T02:21:38.021Z,73.67
2019-05-25T02:24:07.862Z,74.02
2019-05-25T02:26:37.630Z,74.20
2019-05-25T02:29:07.587Z,74.17
2019-05-25T02:31:37.311Z,74.24
2019-05-25T02:34:07.173Z,74.39
2019-05-25T02:36:36.941Z,74.80
2019-05-25T02:39:08.908Z,74.54
2019-05-25T02:41:38.900Z,74.13
2019-05-25T02:44:08.731Z,73.99
2019-05-25T02:46:38.384Z,74.72
2019-05-25T02:49:08.127Z,74.69
2019-05-25T02:51:37.838Z,74.49
2019-05-25T02:54:07.762Z,73.57
2019-05-25T02:56:37.446Z,73.66
2019-05-25T02:59:07.221Z,73.42
2019-05-25T03:01:37.100Z,73.99
2019-05-25T03:04:06.828Z,74.15
2019-05-25T03:06:37.219Z,74.38
2019-05-25T03:09:08.394Z,74.55
2019-05-25T03:11:40.247Z,74.70
2019-05-25T03:14:10.030Z,74.96
2019-05-25T03:16:39.772Z,74.79
2019-05-25T03:19:09.467Z,75.04
2019-05-25T03:21:39.238Z,75.39
2019-05-25T03:24:12.462Z,75.72
2019-05-25T03:26:42.132Z,75.94
2019-05-25T03:29:11.854Z,76.50
2019-05-25T03:31:41.541Z,76.88
2019-05-25T03:34:11.560Z,76.94
2019-05-25T03:36:41.251Z,76.67
2019-05-25T03:39:10.915Z,77.34
2019-05-25T03:41:40.590Z,77.31
2019-05-25T03:44:10.230Z,77.29
2019-05-25T03:46:39.879Z,77.49
2019-05-25T03:49:09.858Z,77.11
2019-05-25T03:51:39.622Z,77.08
2019-05-25T03:54:09.382Z,76.95
2019-05-25T03:56:39.130Z,76.75
2019-05-25T03:59:08.941Z,76.59
2019-05-25T04:01:38.613Z,76.49
2019-05-25T04:04:08.267Z,76.92
2019-05-25T04:06:37.923Z,76.33
2019-05-25T04:09:07.938Z,76.89
2019-05-25T04:11:37.626Z,76.77
2019-05-25T04:14:07.248Z,76.58
2019-05-25T04:16:36.974Z,76.74
2019-05-25T04:19:06.631Z,76.30
2019-05-25T04:21:36.330Z,75.80
2019-05-25T04:24:06.623Z,75.33
2019-05-25T04:26:36.358Z,75.36
2019-05-25T04:29:06.141Z,74.99
2019-05-25T04:31:35.835Z,74.11
2019-05-25T04:34:05.539Z,74.95
2019-05-25T04:36:35.337Z,74.88
2019-05-25T04:39:07.532Z,74.76
2019-05-25T04:41:37.207Z,74.57
2019-05-25T04:44:06.916Z,74.66
2019-05-25T04:46:36.581Z,74.78
2019-05-25T04:49:07.542Z,75.05
2019-05-25T04:51:37.186Z,74.42
2019-05-25T04:54:06.970Z,73.91
2019-05-25T04:56:39.873Z,73.82
2019-05-25T04:59:08.133Z,73.34
2019-05-25T05:01:37.812Z,72.80
2019-05-25T05:04:07.449Z,73.00
2019-05-25T05:06:37.119Z,73.45
2019-05-25T05:09:08.595Z,73.90
2019-05-25T05:11:38.251Z,74.38
2019-05-25T05:14:07.994Z,74.75
2019-05-25T05:16:37.720Z,74.24
2019-05-25T05:19:07.596Z,74.06
2019-05-25T05:21:37.324Z,74.39
2019-05-25T05:24:07.079Z,74.55
2019-05-25T05:26:36.893Z,73.84
2019-05-25T05:29:06.600Z,74.05
2019-05-25T05:31:36.402Z,72.85
2019-05-25T05:34:06.629Z,72.40
2019-05-25T05:36:38.109Z,72.58
2019-05-25T05:39:10.995Z,73.12
2019-05-25T05:41:40.925Z,73.18
2019-05-25T05:44:11.915Z,72.69
2019-05-25T05:46:44.030Z,71.64
2019-05-25T05:49:15.221Z,71.15
2019-05-25T05:51:50.865Z,70.74
2019-05-25T05:54:21.685Z,70.94
2019-05-25T05:56:51.517Z,70.84
2019-05-25T05:59:21.167Z,70.65
2019-05-25T06:01:51.274Z,70.02
2019-05-25T06:04:21.473Z,69.65
2019-05-25T06:06:53.967Z,69.57
2019-05-25T06:09:23.639Z,69.62
2019-05-25T06:11:53.302Z,68.91
2019-05-25T06:14:23.040Z,67.97
2019-05-25T06:16:52.729Z,67.18
2019-05-25T06:19:22.408Z,66.94
2019-05-25T06:21:52.401Z,66.38
2019-05-25T06:24:22.166Z,66.95
2019-05-25T06:26:51.895Z,67.25
2019-05-25T06:29:21.582Z,67.07
2019-05-25T06:31:51.345Z,67.25
2019-05-25T06:34:21.123Z,67.13
2019-05-25T06:36:50.849Z,66.99
2019-05-25T06:39:20.615Z,67.33
2019-05-25T06:41:50.260Z,66.93
2019-05-25T06:44:19.959Z,66.59
2019-05-25T06:46:49.666Z,64.65
2019-05-25T06:49:19.406Z,64.21
2019-05-25T06:51:49.079Z,63.66
2019-05-25T06:54:18.909Z,64.08
2019-05-25T06:56:48.728Z,63.10
2019-05-25T06:59:18.399Z,62.02
2019-05-25T07:01:48.095Z,61.90
2019-05-25T07:04:17.769Z,61.03
2019-05-25T07:06:47.558Z,60.43
2019-05-25T07:09:17.205Z,59.81
2019-05-25T07:11:46.994Z,60.65
2019-05-25T07:14:16.799Z,60.23
2019-05-25T07:16:46.463Z,59.90
2019-05-25T07:19:16.151Z,59.45
2019-05-25T07:21:45.786Z,60.28
2019-05-25T07:24:15.536Z,60.37
2019-05-25T07:26:45.257Z,61.14
2019-05-25T07:29:14.951Z,61.87
2019-05-25T07:31:44.733Z,61.28
2019-05-25T07:34:14.497Z,60.46
2019-05-25T07:36:44.138Z,59.96
2019-05-25T07:39:14.037Z,61.69
2019-05-25T07:41:43.799Z,61.87
2019-05-25T07:44:13.490Z,62.22
2019-05-25T07:46:43.331Z,61.34
2019-05-25T07:49:12.972Z,61.51
2019-05-25T07:51:42.657Z,60.88
2019-05-25T07:54:12.671Z,60.73
2019-05-25T07:56:42.390Z,60.50
2019-05-25T07:59:12.095Z,59.24
2019-05-25T08:01:41.853Z,59.94
2019-05-25T08:04:11.516Z,59.48
2019-05-25T08:06:41.151Z,60.10
2019-05-25T08:09:10.833Z,59.76
2019-05-25T08:11:40.536Z,59.87
2019-05-25T08:14:10.572Z,59.97
2019-05-25T08:16:40.254Z,59.91
2019-05-25T08:19:09.914Z,59.18
2019-05-25T08:21:39.557Z,58.62
2019-05-25T08:24:09.301Z,57.99
2019-05-25T08:26:39.278Z,58.90
2019-05-25T08:29:09.069Z,58.08
2019-05-25T08:31:38.862Z,57.56
2019-05-25T08:34:08.689Z,56.69
2019-05-25T08:36:38.346Z,56.30
2019-05-25T08:39:08.749Z,54.99
2019-05-25T08:41:38.570Z,54.00
2019-05-25T08:44:08.331Z,53.97
2019-05-25T08:46:38.071Z,54.00
2019-05-25T08:49:07.837Z,52.37
2019-05-25T08:51:37.486Z,54.19
2019-05-25T08:54:08.417Z,54.51
2019-05-25T08:56:38.246Z,54.44
2019-05-25T08:59:08.017Z,53.78
2019-05-25T09:01:37.681Z,54.23
2019-05-25T09:04:07.423Z,54.50
2019-05-25T09:06:37.107Z,53.28
2019-05-25T09:09:08.633Z,53.93
2019-05-25T09:11:38.309Z,53.73
2019-05-25T09:14:08.071Z,52.66
2019-05-25T09:16:37.792Z,52.93
2019-05-25T09:19:07.450Z,53.18
2019-05-25T09:21:37.132Z,53.20
2019-05-25T09:24:06.910Z,53.00
2019-05-25T09:26:36.582Z,53.03
2019-05-25T09:29:06.433Z,52.45
2019-05-25T09:31:36.207Z,51.62
2019-05-25T09:34:06.007Z,50.87
2019-05-25T09:36:35.783Z,51.71
2019-05-25T09:39:08.098Z,51.87
2019-05-25T09:41:37.884Z,52.77
2019-05-25T09:44:07.629Z,53.91
2019-05-25T09:46:37.407Z,54.03
2019-05-25T09:49:07.227Z,54.07
2019-05-25T09:51:36.870Z,54.23
2019-05-25T09:54:06.679Z,53.35
2019-05-25T09:56:36.319Z,53.46
2019-05-25T09:59:19.178Z,53.49
2019-05-25T10:01:37.805Z,53.29
2019-05-25T10:04:07.554Z,52.46
2019-05-25T10:06:37.266Z,52.19
2019-05-25T10:09:08.372Z,51.83
2019-05-25T10:11:38.004Z,52.07
2019-05-25T10:14:07.749Z,51.70
2019-05-25T10:16:37.557Z,51.47
2019-05-25T10:19:07.341Z,52.60
2019-05-25T10:21:37.175Z,52.61
2019-05-25T10:24:07.078Z,52.95
2019-05-25T10:26:36.855Z,52.30
2019-05-25T10:29:06.596Z,52.45
2019-05-25T10:31:36.330Z,52.53
2019-05-25T10:34:06.269Z,53.62
2019-05-25T10:36:36.066Z,53.16
2019-05-25T10:39:10.153Z,52.16
2019-05-25T10:41:39.858Z,52.67
2019-05-25T10:44:09.630Z,51.95
2019-05-25T10:46:39.428Z,51.61
2019-05-25T10:49:11.652Z,50.79
2019-05-25T10:51:40.603Z,51.70
2019-05-25T10:54:10.311Z,51.79
2019-05-25T10:56:40.061Z,50.64
2019-05-25T10:59:09.863Z,49.48
2019-05-25T11:01:39.570Z,50.83
2019-05-25T11:04:09.395Z,50.27
2019-05-25T11:06:39.077Z,49.44
2019-05-25T11:09:09.079Z,48.58
2019-05-25T11:11:39.027Z,49.08
2019-05-25T11:14:08.775Z,50.75
2019-05-25T11:16:38.673Z,50.63
2019-05-25T11:19:08.335Z,49.88
2019-05-25T11:21:38.154Z,50.98
2019-05-25T11:24:07.862Z,50.21
2019-05-25T11:26:37.497Z,50.97
2019-05-25T11:29:07.183Z,51.58
2019-05-25T11:31:36.880Z,50.39
2019-05-25T11:34:06.610Z,49.91
2019-05-25T11:36:36.323Z,50.39
2019-05-25T11:39:08.051Z,50.42
2019-05-25T11:41:37.850Z,50.47
2019-05-25T11:44:07.602Z,49.37
2019-05-25T11:46:37.269Z,49.42
2019-05-25T11:49:21.715Z,48.38
2019-05-25T11:51:38.391Z,48.41
2019-05-25T11:54:08.178Z,48.49
2019-05-25T11:56:37.859Z,47.90
2019-05-25T11:59:07.598Z,48.65
2019-05-25T12:01:37.335Z,48.60
2019-05-25T12:04:07.064Z,48.16
2019-05-25T12:06:36.748Z,48.30
2019-05-25T12:09:08.835Z,48.04
2019-05-25T12:11:38.514Z,48.30
2019-05-25T12:14:08.255Z,48.27
2019-05-25T12:16:37.936Z,48.04
2019-05-25T12:19:07.797Z,48.62
2019-05-25T12:21:37.457Z,47.36
2019-05-25T12:24:07.446Z,47.67
2019-05-25T12:26:37.139Z,47.38
2019-05-25T12:29:06.992Z,47.42
2019-05-25T12:31:36.682Z,46.40
2019-05-25T12:34:06.496Z,46.80
2019-05-25T12:36:36.134Z,47.15
2019-05-25T12:39:08.051Z,46.09
2019-05-25T12:41:37.756Z,46.63
2019-05-25T12:44:07.522Z,45.50
2019-05-25T12:46:37.552Z,45.87
2019-05-25T12:49:10.415Z,45.44
2019-05-25T12:51:40.085Z,45.43
2019-05-25T12:54:09.785Z,46.25
2019-05-25T12:56:39.501Z,47.83
2019-05-25T12:59:09.308Z,47.92
2019-05-25T13:01:39.042Z,46.14
2019-05-25T13:04:08.809Z,47.19
2019-05-25T13:06:38.674Z,46.38
2019-05-25T13:09:09.283Z,45.23
2019-05-25T13:11:39.062Z,44.83
2019-05-25T13:14:14.706Z,43.87
2019-05-25T13:16:40.255Z,43.83
2019-05-25T13:19:09.978Z,44.76
2019-05-25T13:21:39.730Z,45.07
2019-05-25T13:24:09.390Z,45.07
2019-05-25T13:26:39.079Z,45.17
2019-05-25T13:29:08.766Z,44.21
2019-05-25T13:31:38.982Z,45.24
2019-05-25T13:34:08.640Z,44.83
2019-05-25T13:36:38.362Z,44.29
2019-05-25T13:39:08.739Z,43.63
2019-05-25T13:41:38.477Z,44.31
2019-05-25T13:44:08.156Z,43.35
2019-05-25T13:46:37.822Z,42.13
2019-05-25T13:49:07.484Z,41.12
2019-05-25T13:51:37.185Z,42.40
2019-05-25T13:54:06.917Z,44.00
2019-05-25T13:56:36.581Z,45.08
2019-05-25T13:59:06.258Z,44.86
2019-05-25T14:01:35.945Z,45.36
2019-05-25T14:04:05.763Z,44.26
2019-05-25T14:06:35.457Z,44.50
2019-05-25T14:09:07.289Z,45.41
2019-05-25T14:11:37.021Z,46.15
2019-05-25T14:14:06.903Z,45.91
2019-05-25T14:16:36.557Z,46.46
2019-05-25T14:19:06.292Z,45.77
2019-05-25T14:21:36.272Z,44.83
2019-05-25T14:24:06.083Z,43.42
2019-05-25T14:26:35.801Z,42.43
2019-05-25T14:29:05.677Z,42.99
2019-05-25T14:31:44.903Z,44.56
2019-05-25T14:34:06.955Z,44.75
2019-05-25T14:36:36.750Z,44.81
2019-05-25T14:39:09.186Z,45.46
2019-05-25T14:41:39.111Z,45.07
2019-05-25T14:44:08.778Z,42.70
2019-05-25T14:46:38.615Z,42.30
2019-05-25T14:49:08.311Z,42.97
2019-05-25T14:51:37.989Z,42.79
2019-05-25T14:54:07.745Z,41.55
2019-05-25T14:56:37.530Z,40.36
2019-05-25T14:59:07.339Z,38.51
2019-05-25T15:01:36.994Z,37.28
2019-05-25T15:04:06.732Z,37.87
2019-05-25T15:06:36.526Z,39.74
2019-05-25T15:09:08.191Z,39.89
2019-05-25T15:11:38.007Z,42.67
2019-05-25T15:14:07.751Z,43.81
2019-05-25T15:16:37.553Z,44.64
2019-05-25T15:19:07.363Z,44.79
2019-05-25T15:21:37.199Z,45.19
2019-05-25T15:24:07.031Z,44.31
2019-05-25T15:26:36.776Z,44.18
2019-05-25T15:29:06.615Z,44.64
2019-05-25T15:31:36.272Z,45.33
2019-05-25T15:34:06.128Z,46.07
2019-05-25T15:36:35.919Z,45.64
2019-05-25T15:39:08.362Z,45.89
2019-05-25T15:41:38.009Z,45.45
2019-05-25T15:44:07.770Z,46.18
2019-05-25T15:46:37.435Z,46.20
2019-05-25T15:49:07.240Z,46.24
2019-05-25T15:51:36.922Z,46.38
2019-05-25T15:54:10.322Z,46.90
2019-05-25T15:56:38.262Z,47.09
2019-05-25T15:59:08.467Z,46.16
2019-05-25T16:01:38.172Z,46.34
2019-05-25T16:04:07.935Z,47.21
2019-05-25T16:06:37.567Z,46.75
2019-05-25T16:09:09.362Z,47.28
2019-05-25T16:11:39.109Z,46.24
2019-05-25T16:14:08.864Z,46.26
2019-05-25T16:16:38.523Z,45.89
2019-05-25T16:19:08.190Z,46.36
2019-05-25T16:21:37.939Z,45.83
2019-05-25T16:24:08.289Z,46.63
2019-05-25T16:26:46.053Z,46.27
2019-05-25T16:29:09.568Z,46.67
2019-05-25T16:31:39.323Z,46.62
2019-05-25T16:34:09.048Z,46.30
2019-05-25T16:36:38.717Z,46.17
2019-05-25T16:39:09.195Z,46.07
2019-05-25T16:41:38.960Z,46.56
2019-05-25T16:44:08.687Z,46.42
2019-05-25T16:46:38.331Z,45.67
2019-05-25T16:49:08.070Z,45.33
2019-05-25T16:51:37.788Z,46.23
2019-05-25T16:54:07.603Z,46.85
2019-05-25T16:56:37.226Z,45.73
2019-05-25T16:59:07.409Z,46.43
2019-05-25T17:01:47.552Z,45.42
2019-05-25T17:04:08.656Z,45.06
2019-05-25T17:06:38.280Z,44.15
2019-05-25T17:09:08.816Z,44.72
2019-05-25T17:11:38.812Z,45.33
2019-05-25T17:14:08.873Z,45.47
2019-05-25T17:16:38.572Z,45.34
2019-05-25T17:19:08.203Z,45.40
2019-05-25T17:21:37.936Z,45.13
2019-05-25T17:24:07.883Z,44.38
2019-05-25T17:26:37.613Z,44.83
2019-05-25T17:29:07.350Z,45.84
2019-05-25T17:31:37.058Z,45.87
2019-05-25T17:34:06.911Z,46.22
2019-05-25T17:36:36.615Z,46.45
2019-05-25T17:39:08.684Z,46.35
2019-05-25T17:41:38.349Z,46.59
2019-05-25T17:44:08.147Z,46.54
2019-05-25T17:46:37.808Z,46.71
2019-05-25T17:49:07.811Z,49.86
2019-05-25T17:51:37.610Z,47.51
2019-05-25T17:54:07.664Z,46.55
2019-05-25T17:56:37.300Z,46.84
2019-05-25T17:59:07.024Z,46.97
2019-05-25T18:01:36.835Z,46.55
2019-05-25T18:04:07.926Z,46.77
2019-05-25T18:06:38.302Z,47.03
2019-05-25T18:09:08.863Z,47.32
2019-05-25T18:11:38.664Z,47.27
2019-05-25T18:14:08.400Z,47.18
2019-05-25T18:16:38.390Z,46.73
2019-05-25T18:19:08.044Z,47.49
2019-05-25T18:21:37.818Z,47.11
2019-05-25T18:24:07.958Z,47.81
2019-05-25T18:26:37.955Z,47.78
2019-05-25T18:29:07.681Z,47.50
2019-05-25T18:31:37.763Z,47.16
2019-05-25T18:34:21.102Z,47.41
2019-05-25T18:36:39.042Z,47.71
2019-05-25T18:39:09.271Z,47.80
2019-05-25T18:41:39.011Z,48.02
2019-05-25T18:44:08.819Z,47.82
2019-05-25T18:46:38.553Z,47.97
2019-05-25T18:49:08.476Z,48.24
2019-05-25T18:51:38.166Z,48.38
2019-05-25T18:54:07.981Z,48.49
2019-05-25T18:56:37.867Z,49.07
2019-05-25T18:59:07.528Z,49.54
2019-05-25T19:01:37.263Z,49.63
2019-05-25T19:04:07.182Z,49.25
2019-05-25T19:06:37.294Z,49.65
2019-05-25T19:09:10.931Z,49.31
2019-05-25T19:11:40.750Z,49.76
2019-05-25T19:14:10.401Z,50.12
2019-05-25T19:16:40.153Z,49.65
2019-05-25T19:19:09.856Z,49.32
2019-05-25T19:21:39.475Z,49.71
2019-05-25T19:24:09.204Z,50.76
2019-05-25T19:26:38.947Z,50.63
2019-05-25T19:29:08.696Z,51.12
2019-05-25T19:31:38.400Z,51.92
2019-05-25T19:34:08.106Z,51.99
2019-05-25T19:36:37.938Z,52.25
2019-05-25T19:39:09.402Z,52.53
2019-05-25T19:41:39.154Z,52.50
2019-05-25T19:44:08.816Z,53.08
2019-05-25T19:46:38.534Z,53.29
2019-05-25T19:49:08.229Z,53.65
2019-05-25T19:51:38.141Z,53.41
2019-05-25T19:54:07.943Z,53.23
2019-05-25T19:56:37.725Z,53.27
2019-05-25T19:59:07.639Z,53.33
2019-05-25T20:01:37.302Z,53.98
2019-05-25T20:04:07.056Z,53.84
2019-05-25T20:06:36.718Z,53.83
2019-05-25T20:09:07.911Z,54.01
2019-05-25T20:11:37.720Z,53.78
2019-05-25T20:14:07.414Z,53.94
2019-05-25T20:16:37.233Z,54.56
2019-05-25T20:19:06.862Z,54.36
2019-05-25T20:21:36.630Z,54.33
2019-05-25T20:24:06.327Z,54.46
2019-05-25T20:26:36.085Z,54.53
2019-05-25T20:29:05.785Z,54.49
2019-05-25T20:31:35.546Z,54.45
2019-05-25T20:34:05.301Z,54.60
2019-05-25T20:36:35.267Z,55.05
2019-05-25T20:39:06.834Z,55.36
2019-05-25T20:41:37.540Z,55.21
2019-05-25T20:44:07.265Z,55.46
2019-05-25T20:46:36.964Z,55.53
2019-05-25T20:49:06.793Z,55.50
2019-05-25T20:51:36.621Z,55.87
2019-05-25T20:54:06.332Z,56.25
2019-05-25T20:56:36.071Z,56.41
2019-05-25T20:59:05.706Z,56.39
2019-05-25T21:01:35.766Z,56.71
2019-05-25T21:04:05.628Z,56.82
2019-05-25T21:06:35.376Z,57.19
2019-05-25T21:09:07.700Z,57.55
2019-05-25T21:11:37.498Z,57.66
2019-05-25T21:14:07.233Z,57.80
2019-05-25T21:16:36.994Z,57.99
2019-05-25T21:19:07.106Z,58.26
2019-05-25T21:21:36.858Z,58.55
2019-05-25T21:24:07.119Z,58.71
2019-05-25T21:26:36.775Z,58.90
2019-05-25T21:29:06.472Z,59.50
2019-05-25T21:31:36.311Z,59.59
2019-05-25T21:34:06.030Z,59.69
2019-05-25T21:36:35.648Z,59.95
2019-05-25T21:39:08.068Z,60.19
2019-05-25T21:41:37.721Z,60.47
2019-05-25T21:44:07.414Z,60.55
2019-05-25T21:46:37.055Z,60.77
2019-05-25T21:49:06.870Z,60.86
2019-05-25T21:51:36.520Z,61.03
2019-05-25T21:54:06.309Z,61.09
2019-05-25T21:56:36.041Z,61.11
2019-05-25T21:59:05.749Z,61.22
2019-05-25T22:01:35.569Z,61.37
2019-05-25T22:04:05.420Z,61.40
2019-05-25T22:06:35.192Z,61.95
2019-05-25T22:09:06.493Z,62.18
2019-05-25T22:11:36.768Z,62.46
2019-05-25T22:14:06.545Z,62.53
2019-05-25T22:16:36.276Z,63.09
2019-05-25T22:19:06.079Z,63.67
2019-05-25T22:21:35.767Z,64.28
2019-05-25T22:24:05.538Z,64.37
2019-05-25T22:26:35.365Z,64.41
2019-05-25T22:29:05.482Z,64.45
2019-05-25T22:31:35.482Z,64.91
2019-05-25T22:34:05.260Z,65.20
2019-05-25T22:36:40.482Z,65.82
2019-05-25T22:39:09.014Z,66.12
2019-05-25T22:41:38.740Z,66.47
2019-05-25T22:44:08.440Z,66.90
2019-05-25T22:46:38.287Z,67.19
2019-05-25T22:49:07.983Z,68.25
2019-05-25T22:51:37.683Z,68.48
2019-05-25T22:54:07.314Z,69.31
2019-05-25T22:56:37.042Z,69.62
2019-05-25T22:59:06.930Z,69.71
2019-05-25T23:01:36.563Z,69.87
2019-05-25T23:04:07.242Z,69.94
2019-05-25T23:06:37.154Z,69.81
2019-05-25T23:09:08.688Z,69.37
2019-05-25T23:11:38.404Z,69.93
2019-05-25T23:14:09.972Z,70.23
2019-05-25T23:16:39.764Z,70.55
2019-05-25T23:19:09.551Z,70.71
2019-05-25T23:21:39.265Z,71.21
2019-05-25T23:24:09.235Z,71.28
2019-05-25T23:26:38.968Z,71.27
2019-05-25T23:29:08.723Z,71.58
2019-05-25T23:31:38.527Z,71.78
2019-05-25T23:34:08.178Z,71.51
2019-05-25T23:36:37.913Z,71.72
2019-05-25T23:39:07.995Z,71.94
2019-05-25T23:41:37.764Z,72.29
2019-05-25T23:44:07.558Z,72.50
2019-05-25T23:46:37.449Z,72.49
2019-05-25T23:49:07.181Z,72.70
2019-05-25T23:51:36.928Z,72.88
2019-05-25T23:54:07.030Z,73.02
2019-05-25T23:56:36.763Z,73.26
2019-05-25T23:59:06.525Z,72.92
